Time;durP1;ratioP1;P1;durP2;ratioP2;P2;SDS_P1;SDS_P2;PMS_P1;PMS_P2;Temp;Humidity;BMP_temperature;BMP_pressure;BME280_temperature;BME280_humidity;BME280_pressure;Samples;Min_cycle;Max_cycle;Signal;HPM_P1;HPM_P2
2024/04/07 00:00:22;;;;;;;58.17;51.85;;;15.10;81.80;;;;;;5067453;27;114663;-54
2024/04/07 00:02:52;;;;;;;61.92;55.33;;;15.10;82.00;;;;;;5068829;27;112770;-54
2024/04/07 00:05:18;;;;;;;63.03;56.38;;;15.10;81.60;;;;;;5068303;27;113027;-55
2024/04/07 00:07:44;;;;;;;63.63;56.80;;;15.10;81.80;;;;;;5067806;27;113843;-54
2024/04/07 00:10:10;;;;;;;61.78;55.38;;;15.10;81.90;;;;;;5067925;27;113251;-54
2024/04/07 00:12:36;;;;;;;67.32;56.50;;;15.20;81.80;;;;;;5068217;27;112599;-54
2024/04/07 00:15:04;;;;;;;66.40;59.63;;;15.30;81.70;;;;;;5067612;27;112695;-54
2024/04/07 00:17:31;;;;;;;67.22;60.13;;;15.30;81.50;;;;;;5059595;27;114477;-54
2024/04/07 00:19:56;;;;;;;66.90;59.67;;;15.20;81.70;;;;;;5048893;27;114179;-54
2024/04/07 00:22:25;;;;;;;65.97;59.17;;;15.20;81.60;;;;;;5061669;27;112731;-54
2024/04/07 00:24:51;;;;;;;68.25;61.05;;;15.20;81.40;;;;;;5060854;27;112682;-54
2024/04/07 00:27:18;;;;;;;68.95;60.95;;;15.00;81.70;;;;;;5055306;27;113248;-54
2024/04/07 00:29:46;;;;;;;63.88;57.38;;;15.00;81.90;;;;;;5065122;27;113324;-54
2024/04/07 00:32:12;;;;;;;68.50;61.17;;;15.00;82.00;;;;;;5068006;27;112917;-54
2024/04/07 00:34:39;;;;;;;66.82;59.95;;;15.00;82.00;;;;;;5051287;27;114102;-54
2024/04/07 00:37:05;;;;;;;64.38;57.88;;;14.90;81.90;;;;;;5046671;27;114369;-54
2024/04/07 00:39:31;;;;;;;68.03;60.92;;;14.80;82.20;;;;;;5046787;27;112492;-54
2024/04/07 00:41:56;;;;;;;66.85;59.53;;;15.00;81.80;;;;;;5053980;27;112855;-54
2024/04/07 00:44:22;;;;;;;68.70;59.63;;;14.90;82.00;;;;;;5067884;27;112805;-54
2024/04/07 00:46:48;;;;;;;64.93;57.80;;;14.80;82.00;;;;;;5066861;27;113037;-54
2024/04/07 00:49:15;;;;;;;69.43;58.00;;;14.80;82.00;;;;;;5066520;27;112759;-54
2024/04/07 00:51:42;;;;;;;64.63;58.03;;;14.90;81.80;;;;;;5065926;27;112967;-54
2024/04/07 00:54:09;;;;;;;64.72;57.63;;;14.80;81.70;;;;;;5047884;27;112879;-54
2024/04/07 00:56:35;;;;;;;66.50;59.50;;;14.70;81.90;;;;;;5058608;27;114474;-53
2024/04/07 00:59:04;;;;;;;63.45;56.75;;;14.70;82.20;;;;;;5057188;27;114197;-54
2024/04/07 01:01:29;;;;;;;65.93;59.13;;;14.60;82.00;;;;;;5054796;27;112844;-54
2024/04/07 01:03:55;;;;;;;65.13;58.45;;;14.80;82.10;;;;;;5047161;27;112687;-54
2024/04/07 01:06:21;;;;;;;63.72;56.67;;;14.70;82.10;;;;;;5046250;27;113276;-54
2024/04/07 01:08:48;;;;;;;64.10;57.47;;;14.70;81.80;;;;;;5046209;27;113202;-54
2024/04/07 01:11:14;;;;;;;64.95;57.72;;;14.60;82.00;;;;;;5047124;27;112929;-54
2024/04/07 01:13:39;;;;;;;65.05;58.00;;;14.60;82.10;;;;;;5047087;27;112878;-53
2024/04/07 01:16:05;;;;;;;66.47;58.17;;;14.60;81.90;;;;;;5045926;27;115056;-55
2024/04/07 01:18:31;;;;;;;66.55;59.42;;;14.60;82.20;;;;;;5045345;27;113704;-54
2024/04/07 01:20:57;;;;;;;68.35;60.88;;;14.60;82.30;;;;;;5047152;27;114126;-54
2024/04/07 01:23:23;;;;;;;65.82;59.08;;;14.40;82.60;;;;;;5047027;27;112745;-54
2024/04/07 01:25:49;;;;;;;64.95;57.90;;;14.40;82.50;;;;;;5060333;27;113196;-54
2024/04/07 01:28:14;;;;;;;64.25;57.72;;;14.40;82.20;;;;;;5046112;27;112654;-54
2024/04/07 01:30:40;;;;;;;65.25;58.17;;;14.40;82.30;;;;;;5059824;27;112859;-54
2024/04/07 01:33:06;;;;;;;65.20;58.22;;;14.40;82.30;;;;;;5049310;27;112920;-53
2024/04/07 01:35:32;;;;;;;61.97;55.60;;;14.40;82.20;;;;;;5048359;27;113827;-53
2024/04/07 01:37:58;;;;;;;61.92;55.50;;;14.40;82.10;;;;;;5050107;27;113997;-53
2024/04/07 01:40:24;;;;;;;63.03;56.50;;;14.50;81.60;;;;;;5049271;27;112460;-53
2024/04/07 01:42:50;;;;;;;65.03;58.05;;;14.30;82.30;;;;;;5051615;27;112665;-53
2024/04/07 01:45:18;;;;;;;62.67;56.08;;;14.20;82.50;;;;;;5047976;27;113265;-56
2024/04/07 01:47:44;;;;;;;63.00;56.40;;;14.20;82.50;;;;;;5050381;27;113761;-54
2024/04/07 01:50:09;;;;;;;63.47;56.95;;;14.10;82.50;;;;;;5034415;27;112933;-53
2024/04/07 01:52:35;;;;;;;63.63;56.85;;;14.20;82.40;;;;;;5055653;27;113057;-54
2024/04/07 01:55:01;;;;;;;58.30;52.58;;;14.20;82.30;;;;;;5049629;27;114829;-53
2024/04/07 01:57:27;;;;;;;64.03;57.38;;;14.20;82.50;;;;;;5049726;27;113661;-54
2024/04/07 01:59:53;;;;;;;62.53;55.95;;;14.00;82.70;;;;;;5073093;27;112652;-53
2024/04/07 02:02:19;;;;;;;63.75;57.08;;;14.10;82.80;;;;;;5065837;27;114476;-54
2024/04/07 02:04:49;;;;;;;59.72;53.72;;;14.10;82.60;;;;;;5053627;27;113239;-53
2024/04/07 02:07:17;;;;;;;61.17;54.55;;;14.10;82.60;;;;;;5058638;27;114555;-53
2024/04/07 02:09:45;;;;;;;61.67;55.03;;;14.10;82.40;;;;;;5058094;27;112519;-53
2024/04/07 02:12:12;;;;;;;60.85;54.45;;;14.10;82.20;;;;;;5052609;27;112745;-53
2024/04/07 02:14:37;;;;;;;59.08;53.13;;;14.00;82.60;;;;;;5050845;27;114421;-53
2024/04/07 02:17:03;;;;;;;59.33;52.97;;;14.00;82.60;;;;;;5051234;27;112889;-54
2024/04/07 02:19:29;;;;;;;61.15;54.75;;;14.00;82.60;;;;;;5051646;27;113820;-54
2024/04/07 02:21:54;;;;;;;64.53;54.20;;;14.00;82.60;;;;;;5054636;27;112757;-53
2024/04/07 02:24:20;;;;;;;61.55;55.10;;;14.00;82.20;;;;;;5054754;27;113208;-53
2024/04/07 02:26:46;;;;;;;58.75;52.15;;;13.90;82.50;;;;;;5059692;27;113146;-53
2024/04/07 02:29:16;;;;;;;61.55;55.03;;;13.90;82.90;;;;;;5065579;27;112535;-54
2024/04/07 02:31:42;;;;;;;59.90;53.60;;;13.90;82.90;;;;;;5069834;27;112643;-54
2024/04/07 02:34:10;;;;;;;60.45;53.97;;;13.80;83.00;;;;;;5068704;27;114541;-54
2024/04/07 02:36:37;;;;;;;59.65;53.53;;;13.90;82.90;;;;;;5068862;27;113876;-53
2024/04/07 02:39:04;;;;;;;58.25;52.30;;;13.90;82.90;;;;;;5070236;27;112793;-53
2024/04/07 02:41:30;;;;;;;58.05;51.92;;;13.90;83.00;;;;;;5069945;27;112901;-54
2024/04/07 02:43:56;;;;;;;54.72;49.35;;;13.90;83.10;;;;;;5068834;27;114573;-54
2024/04/07 02:49:06;;;;;;;50.63;45.80;;;13.80;83.70;;;;;;5067228;27;112837;-53
2024/04/07 02:51:32;;;;;;;54.30;48.42;;;13.80;83.70;;;;;;5069998;27;113490;-54
2024/04/07 02:53:57;;;;;;;53.97;48.22;;;13.90;83.60;;;;;;5069259;27;114543;-54
2024/04/07 02:56:23;;;;;;;53.90;48.67;;;13.90;83.20;;;;;;5068832;27;112648;-53
2024/04/07 02:58:49;;;;;;;55.17;49.22;;;13.90;83.50;;;;;;5069810;27;113118;-54
2024/04/07 03:01:14;;;;;;;52.30;47.20;;;13.90;83.30;;;;;;5069663;27;112742;-53
2024/04/07 03:03:40;;;;;;;53.00;47.38;;;13.90;83.40;;;;;;5068674;27;113149;-53
2024/04/07 03:06:10;;;;;;;53.42;48.00;;;13.80;83.50;;;;;;5068716;27;113119;-53
2024/04/07 03:08:39;;;;;;;54.35;48.65;;;13.80;83.30;;;;;;5069285;27;112707;-54
2024/04/07 03:11:06;;;;;;;53.10;47.58;;;13.70;83.40;;;;;;5069663;27;112679;-54
2024/04/07 03:13:33;;;;;;;57.78;51.30;;;13.60;83.70;;;;;;5049026;27;116217;-53
2024/04/07 03:15:59;;;;;;;60.13;53.63;;;13.50;83.90;;;;;;5068441;27;113906;-54
2024/04/07 03:18:25;;;;;;;61.25;54.17;;;13.60;84.10;;;;;;5069307;27;112694;-54
2024/04/07 03:20:51;;;;;;;85.28;62.60;;;13.70;84.10;;;;;;5069487;27;112769;-54
2024/04/07 03:23:17;;;;;;;72.82;65.00;;;13.60;84.30;;;;;;5068296;27;114349;-54
2024/04/07 03:25:42;;;;;;;128.23;69.15;;;13.60;84.60;;;;;;5068213;27;112600;-54
2024/04/07 03:28:08;;;;;;;87.53;71.05;;;13.60;85.00;;;;;;5069537;27;112659;-53
2024/04/07 03:30:35;;;;;;;89.60;70.72;;;13.60;85.60;;;;;;5069339;27;113327;-54
2024/04/07 03:33:02;;;;;;;74.40;67.15;;;13.60;85.80;;;;;;5068168;27;113262;-53
2024/04/07 03:35:28;;;;;;;83.93;69.93;;;13.60;85.90;;;;;;5067892;27;113678;-53
2024/04/07 03:37:54;;;;;;;72.60;65.18;;;13.50;85.70;;;;;;5068915;27;112549;-54
2024/04/07 03:40:20;;;;;;;102.68;72.38;;;13.60;86.10;;;;;;5069391;27;113040;-54
2024/04/07 03:42:46;;;;;;;94.53;71.65;;;13.60;85.90;;;;;;5068004;27;113627;-53
2024/04/07 03:45:11;;;;;;;167.75;76.85;;;13.60;86.20;;;;;;5049262;27;113669;-53
2024/04/07 03:47:38;;;;;;;94.78;74.93;;;13.60;86.20;;;;;;5069031;27;112706;-54
2024/04/07 03:50:04;;;;;;;86.30;75.70;;;13.70;86.20;;;;;;5068958;27;112767;-53
2024/04/07 03:52:30;;;;;;;87.85;78.40;;;13.80;86.20;;;;;;5067581;27;115386;-54
2024/04/07 03:54:56;;;;;;;102.13;79.60;;;13.60;86.60;;;;;;5068154;27;113798;-53
2024/04/07 03:57:21;;;;;;;86.10;77.10;;;13.70;86.90;;;;;;5069089;27;112585;-53
2024/04/07 03:59:47;;;;;;;122.43;87.88;;;13.80;86.80;;;;;;5068775;27;112650;-54
2024/04/07 04:02:27;;;;;;;162.52;87.82;;;13.70;87.10;;;;;;5067287;27;114679;-53
2024/04/07 04:05:00;;;;;;;93.57;82.05;;;13.70;87.30;;;;;;5067394;27;112612;-54
2024/04/07 04:07:27;;;;;;;86.53;77.65;;;13.90;87.10;;;;;;5068846;27;112640;-53
2024/04/07 04:09:54;;;;;;;133.85;84.10;;;14.00;86.80;;;;;;5068675;27;112654;-54
2024/04/07 04:12:20;;;;;;;96.75;78.68;;;13.90;86.80;;;;;;5067431;27;114990;-53
2024/04/07 04:14:46;;;;;;;154.70;84.10;;;13.80;87.40;;;;;;5067540;27;112566;-53
2024/04/07 04:17:13;;;;;;;93.72;81.18;;;13.90;87.00;;;;;;5068566;27;112768;-53
2024/04/07 04:19:39;;;;;;;106.65;79.85;;;13.70;87.60;;;;;;5068098;27;113170;-54
2024/04/07 04:22:05;;;;;;;89.90;80.50;;;13.90;87.40;;;;;;5067467;27;113250;-53
2024/04/07 04:24:31;;;;;;;104.85;78.80;;;13.80;87.40;;;;;;5066271;27;114140;-53
2024/04/07 04:26:57;;;;;;;80.50;72.38;;;13.80;87.10;;;;;;5068580;27;112820;-54
2024/04/07 04:29:22;;;;;;;110.22;78.13;;;13.80;87.10;;;;;;5068235;27;112697;-54
2024/04/07 04:31:48;;;;;;;112.60;74.53;;;13.80;87.00;;;;;;5067391;27;114767;-54
2024/04/07 04:34:13;;;;;;;97.82;80.20;;;13.80;87.10;;;;;;5067180;27;112704;-54
2024/04/07 04:36:39;;;;;;;82.95;72.25;;;13.80;87.10;;;;;;5050061;27;112655;-54
2024/04/07 04:39:06;;;;;;;77.15;69.65;;;13.80;87.50;;;;;;5068324;27;112663;-53
2024/04/07 04:41:33;;;;;;;97.70;72.15;;;13.90;86.90;;;;;;5048058;27;116169;-53
2024/04/07 04:43:58;;;;;;;83.63;75.53;;;13.80;87.20;;;;;;5067002;27;113324;-53
2024/04/07 04:46:26;;;;;;;131.60;74.47;;;13.90;87.30;;;;;;5053915;27;112751;-53
2024/04/07 04:48:51;;;;;;;82.18;73.93;;;13.80;87.50;;;;;;5067935;27;112924;-53
2024/04/07 04:51:17;;;;;;;81.47;73.55;;;13.90;87.20;;;;;;5065103;27;115550;-54
2024/04/07 04:53:43;;;;;;;80.57;71.95;;;13.90;87.60;;;;;;5054531;27;113991;-53
2024/04/07 04:56:09;;;;;;;81.75;72.78;;;14.10;87.10;;;;;;5068134;27;113050;-54
2024/04/07 04:58:35;;;;;;;98.30;80.07;;;14.20;87.10;;;;;;5067962;27;112766;-53
2024/04/07 05:01:13;;;;;;;89.35;78.25;;;14.10;87.20;;;;;;5066773;27;113252;-54
2024/04/07 05:03:39;;;;;;;95.82;77.68;;;14.10;87.30;;;;;;5066673;27;112751;-54
2024/04/07 05:06:11;;;;;;;88.75;77.13;;;14.10;87.50;;;;;;5067998;27;112901;-54
2024/04/07 05:08:38;;;;;;;89.57;79.27;;;14.10;87.50;;;;;;5067474;27;112670;-54
2024/04/07 05:11:05;;;;;;;165.77;84.68;;;14.10;87.60;;;;;;5066513;27;114516;-54
2024/04/07 05:13:31;;;;;;;94.18;80.18;;;14.00;87.80;;;;;;5066604;27;112720;-54
2024/04/07 05:15:57;;;;;;;124.82;80.43;;;14.20;88.00;;;;;;5067627;27;112896;-54
2024/04/07 05:18:23;;;;;;;101.80;77.18;;;14.30;87.80;;;;;;5048443;27;112687;-55
2024/04/07 05:20:53;;;;;;;85.32;73.57;;;14.30;87.60;;;;;;5066761;27;113256;-54
2024/04/07 05:23:18;;;;;;;80.13;71.72;;;14.30;87.60;;;;;;5066271;27;113722;-54
2024/04/07 05:25:44;;;;;;;74.07;66.28;;;14.40;87.30;;;;;;5067491;27;113025;-54
2024/04/07 05:28:11;;;;;;;76.00;67.82;;;14.50;86.90;;;;;;5067524;27;112753;-54
2024/04/07 05:30:37;;;;;;;74.93;65.63;;;14.40;86.60;;;;;;5066457;27;113584;-54
2024/04/07 05:33:03;;;;;;;87.05;72.25;;;14.40;87.10;;;;;;5066197;27;113776;-54
2024/04/07 05:35:30;;;;;;;78.63;70.18;;;14.50;87.00;;;;;;5068633;27;112671;-54
2024/04/07 05:37:56;;;;;;;86.68;70.75;;;14.50;87.40;;;;;;5070959;27;112994;-53
2024/04/07 05:40:21;;;;;;;71.70;64.05;;;14.60;87.30;;;;;;5069705;27;115252;-54
2024/04/07 05:42:47;;;;;;;82.35;66.70;;;14.70;86.90;;;;;;5069817;27;112710;-54
2024/04/07 05:45:15;;;;;;;84.25;65.13;;;14.80;86.60;;;;;;5070860;27;112782;-54
2024/04/07 05:47:40;;;;;;;68.53;61.35;;;14.80;86.30;;;;;;5070763;27;112692;-54
2024/04/07 05:50:06;;;;;;;70.45;62.72;;;14.80;86.80;;;;;;5069811;27;113295;-54
2024/04/07 05:52:33;;;;;;;68.45;60.95;;;14.80;86.80;;;;;;5069809;27;112920;-54
2024/04/07 05:54:58;;;;;;;67.85;60.95;;;14.90;86.60;;;;;;5071386;27;112520;-54
2024/04/07 05:57:24;;;;;;;64.22;57.42;;;15.00;86.30;;;;;;5070804;27;112770;-54
2024/04/07 05:59:51;;;;;;;64.13;57.45;;;14.90;87.00;;;;;;5069583;27;113179;-54
2024/04/07 06:02:16;;;;;;;61.75;55.25;;;15.00;86.40;;;;;;5069765;27;112569;-54
2024/04/07 06:04:44;;;;;;;61.78;55.40;;;15.30;85.90;;;;;;5070607;27;112900;-54
2024/04/07 06:07:09;;;;;;;63.17;56.35;;;15.60;85.10;;;;;;5070688;27;112686;-54
2024/04/07 06:09:35;;;;;;;62.08;55.80;;;15.40;85.30;;;;;;5069675;27;113652;-54
2024/04/07 06:12:02;;;;;;;60.92;54.83;;;15.40;85.30;;;;;;5068913;27;113758;-54
2024/04/07 06:14:28;;;;;;;62.83;56.08;;;15.50;85.10;;;;;;5070410;27;112588;-54
2024/04/07 06:16:54;;;;;;;61.78;55.08;;;15.50;84.80;;;;;;5070262;27;112690;-54
2024/04/07 06:19:19;;;;;;;62.25;55.58;;;15.60;84.80;;;;;;5056791;27;113341;-54
2024/04/07 06:21:45;;;;;;;67.53;58.78;;;15.60;84.70;;;;;;5056016;27;112889;-54
2024/04/07 06:24:11;;;;;;;75.68;62.08;;;15.40;85.00;;;;;;5055643;27;112637;-54
2024/04/07 06:26:36;;;;;;;67.65;60.40;;;15.20;85.70;;;;;;5070188;27;112825;-54
2024/04/07 06:29:02;;;;;;;62.78;55.95;;;15.30;85.70;;;;;;5069076;27;113556;-54
2024/04/07 06:31:28;;;;;;;62.00;55.35;;;15.40;85.70;;;;;;5069055;27;113081;-54
2024/04/07 06:33:54;;;;;;;65.20;58.30;;;15.50;85.50;;;;;;5070235;27;112459;-54
2024/04/07 06:36:19;;;;;;;63.22;56.53;;;15.60;85.30;;;;;;5070139;27;112715;-54
2024/04/07 06:38:45;;;;;;;57.78;51.63;;;15.70;84.80;;;;;;5068890;27;114808;-54
2024/04/07 06:41:12;;;;;;;55.65;50.00;;;15.80;84.70;;;;;;5068501;27;113876;-54
2024/04/07 06:43:38;;;;;;;56.70;50.92;;;15.80;84.30;;;;;;5070090;27;112835;-54
2024/04/07 06:46:04;;;;;;;53.72;48.15;;;15.60;84.50;;;;;;5070120;27;112865;-54
2024/04/07 06:48:29;;;;;;;55.45;49.80;;;15.70;84.50;;;;;;5068111;27;114516;-54
2024/04/07 06:50:55;;;;;;;56.78;50.75;;;15.80;84.10;;;;;;5056111;27;114843;-54
2024/04/07 06:53:22;;;;;;;59.58;53.15;;;15.70;84.40;;;;;;5068790;27;112514;-54
2024/04/07 06:55:47;;;;;;;60.55;53.17;;;15.80;84.30;;;;;;5069626;27;112773;-54
2024/04/07 06:58:13;;;;;;;58.22;52.03;;;16.10;83.70;;;;;;5068312;27;114395;-54
2024/04/07 07:00:40;;;;;;;55.65;49.83;;;16.10;83.70;;;;;;5068820;27;112958;-54
2024/04/07 07:03:06;;;;;;;57.80;51.67;;;16.00;84.00;;;;;;5069471;27;112690;-54
2024/04/07 07:05:31;;;;;;;55.72;49.88;;;16.00;83.70;;;;;;5069511;27;112830;-54
2024/04/07 07:07:58;;;;;;;54.97;49.30;;;16.00;83.60;;;;;;5068298;27;115167;-54
2024/04/07 07:10:23;;;;;;;56.90;50.75;;;16.00;83.80;;;;;;5067945;27;114198;-54
2024/04/07 07:12:49;;;;;;;57.22;50.88;;;16.10;83.80;;;;;;5069484;27;112629;-54
2024/04/07 07:15:15;;;;;;;57.97;51.88;;;16.00;83.70;;;;;;5069595;27;112977;-54
2024/04/07 07:17:40;;;;;;;56.15;50.35;;;16.10;83.70;;;;;;5068517;27;113952;-54
2024/04/07 07:20:06;;;;;;;55.70;49.75;;;16.20;83.30;;;;;;5068091;27;112777;-54
2024/04/07 07:22:32;;;;;;;45.25;40.67;;;16.30;83.30;;;;;;5069540;27;112956;-54
2024/04/07 07:24:58;;;;;;;46.33;41.55;;;16.50;82.30;;;;;;5069063;27;112674;-54
2024/04/07 07:27:23;;;;;;;48.08;42.95;;;16.70;81.90;;;;;;5068160;27;113546;-54
2024/04/07 07:29:49;;;;;;;52.22;47.00;;;16.70;82.00;;;;;;5049735;27;114741;-54
2024/04/07 07:32:15;;;;;;;51.58;46.50;;;16.90;81.30;;;;;;5069317;27;112642;-54
2024/04/07 07:34:41;;;;;;;47.45;42.78;;;16.70;81.40;;;;;;5068951;27;112665;-54
2024/04/07 07:37:06;;;;;;;47.45;42.60;;;16.90;81.20;;;;;;5068208;27;113571;-54
2024/04/07 07:39:32;;;;;;;48.05;43.25;;;16.90;80.70;;;;;;5049075;27;113894;-54
2024/04/07 07:41:58;;;;;;;49.42;44.40;;;16.90;80.90;;;;;;5069158;27;112669;-54
2024/04/07 07:44:23;;;;;;;49.95;44.95;;;16.90;80.90;;;;;;5068820;27;112890;-54
2024/04/07 07:46:49;;;;;;;47.63;42.60;;;16.80;81.50;;;;;;5067927;27;114540;-54
2024/04/07 07:49:15;;;;;;;47.05;42.33;;;17.00;81.10;;;;;;5068162;27;113033;-54
2024/04/07 07:51:41;;;;;;;49.25;44.38;;;17.20;80.50;;;;;;5068741;27;112771;-54
2024/04/07 07:54:07;;;;;;;44.95;40.60;;;17.20;80.40;;;;;;5069347;27;112664;-54
2024/04/07 07:56:32;;;;;;;45.13;40.80;;;17.40;80.30;;;;;;5067371;27;114312;-54
2024/04/07 07:58:58;;;;;;;47.88;42.95;;;17.40;79.70;;;;;;5066334;27;113688;-54
2024/04/07 08:01:24;;;;;;;47.55;42.97;;;17.30;79.60;;;;;;5049926;27;112537;-54
2024/04/07 08:03:49;;;;;;;47.67;42.88;;;17.10;80.20;;;;;;5068962;27;112600;-54
2024/04/07 08:06:15;;;;;;;45.33;41.20;;;17.30;80.20;;;;;;5067808;27;113342;-54
2024/04/07 08:08:41;;;;;;;44.58;40.10;;;17.20;80.00;;;;;;5067303;27;113257;-54
2024/04/07 08:11:06;;;;;;;44.95;40.28;;;17.40;79.70;;;;;;5049829;27;112604;-54
2024/04/07 08:13:33;;;;;;;43.05;39.05;;;17.70;78.90;;;;;;5068430;27;112925;-54
2024/04/07 08:15:59;;;;;;;40.25;36.55;;;17.70;78.30;;;;;;5067547;27;114490;-54
2024/04/07 08:18:24;;;;;;;41.30;37.08;;;17.90;78.30;;;;;;5066655;27;114036;-54
2024/04/07 08:20:50;;;;;;;44.35;40.22;;;17.90;77.60;;;;;;5049834;27;112644;-54
2024/04/07 08:23:16;;;;;;;45.22;40.92;;;17.90;77.50;;;;;;5068180;27;112831;-54
2024/04/07 08:25:42;;;;;;;43.00;39.00;;;17.80;78.30;;;;;;5067139;27;113663;-54
2024/04/07 08:28:08;;;;;;;44.08;39.58;;;17.80;77.90;;;;;;5067115;27;113630;-54
2024/04/07 08:30:34;;;;;;;41.13;37.22;;;18.10;77.40;;;;;;5068419;27;112685;-54
2024/04/07 08:33:00;;;;;;;43.05;38.83;;;18.10;77.00;;;;;;5068339;27;112618;-54
2024/04/07 08:35:26;;;;;;;42.38;38.47;;;18.40;76.50;;;;;;5067294;27;113653;-54
2024/04/07 08:37:52;;;;;;;39.35;35.50;;;18.50;76.20;;;;;;5064263;27;112658;-54
2024/04/07 08:40:18;;;;;;;38.85;35.25;;;18.70;75.50;;;;;;5056783;27;112837;-54
2024/04/07 08:42:44;;;;;;;35.88;32.67;;;18.60;75.80;;;;;;5058608;27;112809;-55
2024/04/07 08:45:11;;;;;;;37.13;33.75;;;18.70;75.80;;;;;;5059801;27;114610;-55
2024/04/07 08:47:38;;;;;;;40.10;36.10;;;18.90;74.90;;;;;;5060300;27;112676;-54
2024/04/07 08:50:05;;;;;;;36.25;32.75;;;18.80;74.60;;;;;;5047896;27;112990;-55
2024/04/07 08:52:31;;;;;;;36.45;33.05;;;19.10;74.40;;;;;;5047230;27;113095;-54
2024/04/07 08:54:58;;;;;;;34.75;31.45;;;19.40;73.20;;;;;;5046330;27;114011;-55
2024/04/07 08:57:24;;;;;;;32.95;29.77;;;19.70;72.10;;;;;;5028033;27;113617;-54
2024/04/07 08:59:52;;;;;;;33.15;30.17;;;20.30;70.70;;;;;;5047264;27;113027;-55
2024/04/07 09:02:19;;;;;;;34.00;30.73;;;20.10;70.60;;;;;;5047348;27;113441;-55
2024/04/07 09:04:45;;;;;;;31.90;28.70;;;19.90;71.50;;;;;;5045935;27;114434;-53
2024/04/07 09:07:11;;;;;;;33.33;30.13;;;20.20;71.20;;;;;;5046356;27;112910;-55
2024/04/07 09:09:37;;;;;;;30.38;27.38;;;20.30;69.80;;;;;;5046851;27;112677;-53
2024/04/07 09:12:04;;;;;;;27.83;25.23;;;20.50;69.70;;;;;;5046948;27;112877;-55
2024/04/07 09:14:34;;;;;;;28.50;26.00;;;20.80;69.30;;;;;;5045865;27;114845;-55
2024/04/07 09:17:05;;;;;;;32.55;29.50;;;20.90;68.40;;;;;;5046016;27;113807;-55
2024/04/07 09:19:32;;;;;;;28.88;26.27;;;20.50;68.30;;;;;;5040841;27;112853;-55
2024/04/07 09:21:59;;;;;;;30.15;27.25;;;20.70;68.80;;;;;;5051036;27;112821;-55
2024/04/07 09:24:26;;;;;;;30.25;27.58;;;21.10;67.20;;;;;;5050320;27;113326;-55
2024/04/07 09:26:53;;;;;;;28.30;25.55;;;20.40;69.50;;;;;;5056963;27;114381;-55
2024/04/07 09:29:19;;;;;;;27.08;24.67;;;21.00;68.20;;;;;;5046557;27;112645;-56
2024/04/07 09:31:45;;;;;;;25.70;23.40;;;21.00;67.60;;;;;;5047003;27;112943;-55
2024/04/07 09:34:10;;;;;;;23.88;21.50;;;21.40;67.30;;;;;;5057110;27;113884;-55
2024/04/07 09:36:37;;;;;;;21.00;18.92;;;21.90;65.00;;;;;;5050222;27;112892;-56
2024/04/07 09:39:03;;;;;;;19.83;17.85;;;22.20;63.50;;;;;;5061617;27;112651;-55
2024/04/07 09:41:30;;;;;;;22.83;20.50;;;22.60;62.10;;;;;;5049146;27;113031;-55
2024/04/07 09:43:59;;;;;;;21.33;19.33;;;22.20;61.80;;;;;;5045864;27;113128;-55
2024/04/07 09:46:27;;;;;;;20.17;18.05;;;22.10;63.20;;;;;;5049588;27;113854;-55
2024/04/07 09:48:58;;;;;;;19.98;17.15;;;22.40;62.10;;;;;;5046488;27;112711;-55
2024/04/07 09:51:30;;;;;;;18.38;16.77;;;22.90;61.70;;;;;;5046877;27;112537;-55
2024/04/07 09:53:59;;;;;;;18.87;15.67;;;23.30;59.00;;;;;;5046246;27;113398;-55
2024/04/07 09:56:31;;;;;;;14.27;12.88;;;23.10;59.80;;;;;;5046338;27;112672;-55
2024/04/07 09:59:01;;;;;;;12.38;10.32;;;23.40;58.00;;;;;;5047735;27;112813;-55
2024/04/07 10:01:27;;;;;;;13.75;9.48;;;23.60;54.50;;;;;;5048163;27;113048;-56
2024/04/07 10:03:53;;;;;;;14.13;12.68;;;23.50;54.30;;;;;;5046813;27;113155;-55
2024/04/07 10:06:20;;;;;;;16.45;14.15;;;24.00;55.10;;;;;;5045743;27;112909;-56
2024/04/07 10:08:47;;;;;;;14.55;12.82;;;24.30;55.30;;;;;;5046848;27;112880;-56
2024/04/07 10:11:15;;;;;;;14.57;11.68;;;24.90;53.10;;;;;;5048238;27;112863;-55
2024/04/07 10:13:41;;;;;;;16.10;14.45;;;24.60;53.50;;;;;;5046373;27;113231;-56
2024/04/07 10:16:08;;;;;;;13.63;12.20;;;24.60;52.50;;;;;;5046397;27;113125;-56
2024/04/07 10:18:36;;;;;;;15.20;13.55;;;24.40;52.70;;;;;;5049509;27;113129;-56
2024/04/07 10:21:02;;;;;;;16.10;12.63;;;23.90;53.70;;;;;;5034357;27;114546;-56
2024/04/07 10:23:28;;;;;;;15.15;12.43;;;24.00;54.60;;;;;;5055565;27;113198;-56
2024/04/07 10:26:03;;;;;;;16.42;13.70;;;25.10;51.70;;;;;;5064883;27;113026;-56
2024/04/07 10:28:47;;;;;;;21.80;12.80;;;25.80;49.00;;;;;;5069867;27;112895;-56
2024/04/07 10:31:21;;;;;;;16.17;14.57;;;25.50;50.70;;;;;;5070077;27;113236;-56
2024/04/07 10:33:48;;;;;;;14.98;12.20;;;27.90;44.90;;;;;;5069284;27;113583;-56
2024/04/07 10:36:20;;;;;;;16.02;14.32;;;30.10;42.00;;;;;;5069216;27;112681;-56
2024/04/07 10:38:49;;;;;;;11.90;10.52;;;30.70;39.40;;;;;;5069850;27;112682;-56
2024/04/07 10:41:17;;;;;;;14.45;12.95;;;33.40;37.10;;;;;;5070284;27;113173;-56
2024/04/07 10:43:44;;;;;;;15.00;13.45;;;32.20;37.40;;;;;;5068815;27;114404;-56
2024/04/07 10:46:10;;;;;;;15.95;14.43;;;32.80;36.70;;;;;;5069016;27;113006;-56
2024/04/07 10:48:36;;;;;;;17.70;15.88;;;31.90;36.80;;;;;;5070130;27;112468;-56
2024/04/07 10:51:06;;;;;;;14.60;13.30;;;30.80;38.60;;;;;;5051123;27;112740;-56
2024/04/07 10:53:32;;;;;;;15.55;14.23;;;30.30;39.70;;;;;;5069161;27;114456;-56
2024/04/07 10:56:00;;;;;;;14.18;12.77;;;32.80;36.10;;;;;;5068576;27;113761;-56
2024/04/07 10:58:26;;;;;;;17.77;14.30;;;32.80;36.10;;;;;;5069814;27;113199;-56
2024/04/07 11:00:51;;;;;;;14.43;12.90;;;34.40;34.40;;;;;;5069641;27;112742;-56
2024/04/07 11:03:17;;;;;;;16.13;14.57;;;35.40;33.00;;;;;;5068620;27;113557;-56
2024/04/07 11:05:43;;;;;;;15.52;14.10;;;33.50;34.50;;;;;;5068417;27;112674;-57
2024/04/07 11:08:10;;;;;;;16.83;14.90;;;31.90;36.70;;;;;;5069768;27;112812;-55
2024/04/07 11:10:39;;;;;;;14.20;12.77;;;33.30;35.00;;;;;;5051054;27;112744;-54
2024/04/07 11:13:09;;;;;;;16.90;15.20;;;33.80;35.00;;;;;;5068313;27;114342;-55
2024/04/07 11:15:35;;;;;;;15.55;14.05;;;33.40;34.60;;;;;;5068558;27;112656;-55
2024/04/07 11:18:12;;;;;;;13.68;12.40;;;33.10;35.30;;;;;;5069525;27;112811;-55
2024/04/07 11:20:37;;;;;;;14.27;12.98;;;34.70;34.40;;;;;;5069216;27;112619;-55
2024/04/07 11:23:03;;;;;;;16.52;14.93;;;36.30;31.70;;;;;;5068382;27;113715;-55
2024/04/07 11:25:29;;;;;;;16.90;13.90;;;35.00;32.60;;;;;;5068105;27;113690;-55
2024/04/07 11:27:56;;;;;;;14.68;13.18;;;34.90;33.00;;;;;;5069414;27;112645;-55
2024/04/07 11:30:35;;;;;;;15.27;13.82;;;35.30;32.60;;;;;;5069243;27;113050;-55
2024/04/07 11:33:08;;;;;;;16.13;14.52;;;34.90;33.10;;;;;;5067761;27;113397;-55
2024/04/07 11:35:41;;;;;;;15.52;12.57;;;36.30;31.20;;;;;;5067890;27;113799;-55
2024/04/07 11:38:08;;;;;;;15.85;12.98;;;36.60;31.20;;;;;;5069142;27;112695;-55
2024/04/07 11:40:34;;;;;;;15.25;13.85;;;37.40;30.30;;;;;;5069162;27;113933;-55
2024/04/07 11:43:00;;;;;;;14.00;12.82;;;36.00;31.30;;;;;;5067837;27;114993;-55
2024/04/07 11:45:26;;;;;;;14.65;13.30;;;36.00;31.60;;;;;;5067999;27;112866;-55
2024/04/07 11:47:52;;;;;;;14.50;13.20;;;35.40;32.30;;;;;;5068641;27;112763;-55
2024/04/07 11:50:18;;;;;;;14.00;12.60;;;36.10;31.60;;;;;;5068918;27;112822;-55
2024/04/07 11:52:44;;;;;;;13.73;12.43;;;37.40;30.30;;;;;;5067978;27;113239;-55
2024/04/07 11:55:10;;;;;;;14.50;12.88;;;37.40;30.30;;;;;;5068204;27;113638;-55
2024/04/07 11:57:36;;;;;;;14.70;13.07;;;36.50;31.50;;;;;;5068983;27;113117;-55
2024/04/07 12:00:07;;;;;;;15.48;13.95;;;36.00;31.40;;;;;;5068582;27;112674;-55
2024/04/07 12:02:33;;;;;;;14.97;13.57;;;36.00;31.90;;;;;;5067585;27;114548;-55
2024/04/07 12:04:58;;;;;;;15.35;13.88;;;35.40;32.30;;;;;;5067553;27;112743;-55
2024/04/07 12:07:24;;;;;;;13.32;12.15;;;36.30;31.50;;;;;;5068153;27;112582;-58
2024/04/07 12:09:51;;;;;;;14.05;12.65;;;37.00;30.80;;;;;;5065271;27;112775;-55
2024/04/07 12:12:16;;;;;;;14.07;12.77;;;37.50;30.20;;;;;;5071040;27;114764;-55
2024/04/07 12:14:42;;;;;;;14.18;12.40;;;36.60;31.10;;;;;;5075454;27;112755;-55